Time;durP1;ratioP1;P1;durP2;ratioP2;P2;SDS_P1;SDS_P2;PMS_P1;PMS_P2;Temp;Humidity;BMP_temperature;BMP_pressure;BME280_temperature;BME280_humidity;BME280_pressure;Samples;Min_cycle;Max_cycle;Signal;HPM_P1;HPM_P2
2022/10/16 00:01:49;;;;;;;8.20;3.37;;;;;;;8.66;64.81;101816.86;1813361;79;21047;-59
2022/10/16 00:04:17;;;;;;;9.38;4.00;;;;;;;8.57;65.01;101819.61;1813377;79;21141;-62
2022/10/16 00:06:46;;;;;;;8.23;3.90;;;;;;;8.50;65.18;101822.33;1808227;77;21045;-47
2022/10/16 00:09:15;;;;;;;6.90;3.02;;;;;;;8.47;65.33;101824.98;1807861;79;21078;-47
2022/10/16 00:11:44;;;;;;;15.38;3.42;;;;;;;8.45;65.46;101825.45;1811396;79;21051;-47
2022/10/16 00:14:15;;;;;;;9.23;2.92;;;;;;;8.46;65.54;101825.86;1798735;79;21095;-47
2022/10/16 00:16:44;;;;;;;7.95;3.30;;;;;;;8.48;65.57;101825.84;1812373;79;21054;-50
2022/10/16 00:19:13;;;;;;;6.28;3.15;;;;;;;8.50;65.62;101835.45;1806146;79;21059;-47
2022/10/16 00:21:42;;;;;;;6.50;3.20;;;;;;;8.53;65.64;101828.42;1792856;79;21530;-48
2022/10/16 00:24:11;;;;;;;6.22;3.20;;;;;;;8.55;65.70;101830.13;1784637;80;21103;-47
2022/10/16 00:26:41;;;;;;;5.42;3.20;;;;;;;8.57;65.70;101832.28;1785370;79;21604;-57
2022/10/16 00:29:10;;;;;;;6.80;3.00;;;;;;;8.59;65.78;101831.81;1784436;80;21173;-57
2022/10/16 00:31:39;;;;;;;5.65;3.08;;;;;;;8.60;65.78;101835.33;1803689;79;21227;-58
2022/10/16 00:34:08;;;;;;;4.83;3.02;;;;;;;8.62;65.79;101834.86;1803534;79;21035;-55
2022/10/16 00:36:37;;;;;;;7.80;3.15;;;;;;;8.62;65.82;101830.47;1803447;79;21129;-57
2022/10/16 00:39:05;;;;;;;6.58;3.15;;;;;;;8.63;65.77;101833.95;1812796;79;21168;-50
2022/10/16 00:41:34;;;;;;;8.50;3.55;;;;;;;8.63;65.72;101833.53;1826237;77;21106;-56
2022/10/16 00:44:06;;;;;;;5.97;2.85;;;;;;;8.62;65.66;101826.53;1823006;78;21011;-52
2022/10/16 00:46:40;;;;;;;6.22;2.58;;;;;;;8.61;65.59;101831.38;1827704;78;21036;-58
2022/10/16 00:49:21;;;;;;;7.67;2.72;;;;;;;8.60;65.55;101834.02;1825243;77;21161;-54
2022/10/16 00:51:53;;;;;;;7.87;2.95;;;;;;;8.60;65.56;101837.50;1832658;78;21118;-55
2022/10/16 00:54:27;;;;;;;4.95;2.47;;;;;;;8.62;65.52;101838.34;1829578;78;21142;-58
2022/10/16 00:56:59;;;;;;;7.08;2.95;;;;;;;8.65;65.44;101836.11;1823044;78;21165;-60
2022/10/16 00:59:30;;;;;;;6.03;2.62;;;;;;;8.67;65.31;101839.62;1833265;78;21052;-57
2022/10/16 01:02:00;;;;;;;5.60;2.77;;;;;;;8.65;65.36;101836.11;1833168;78;21589;-59
2022/10/16 01:04:37;;;;;;;5.92;2.65;;;;;;;8.66;65.38;101837.86;1833261;78;21506;-52
2022/10/16 01:07:15;;;;;;;4.30;2.83;;;;;;;8.67;65.32;101835.22;1826511;78;21024;-57
2022/10/16 01:09:55;;;;;;;6.28;3.10;;;;;;;8.69;65.37;101836.06;1833355;78;21150;-49
2022/10/16 01:12:36;;;;;;;9.50;3.30;;;;;;;8.71;65.36;101833.42;1832144;78;21055;-54
2022/10/16 01:15:20;;;;;;;5.53;2.85;;;;;;;8.70;65.33;101835.61;1792590;78;21050;-54
2022/10/16 01:18:00;;;;;;;10.28;2.95;;;;;;;8.67;65.41;101834.36;1814384;78;21199;-51
2022/10/16 01:20:37;;;;;;;7.00;3.27;;;;;;;8.68;65.34;101840.02;1814641;77;21481;-56
2022/10/16 01:23:23;;;;;;;12.73;3.20;;;;;;;8.67;65.36;101840.47;1815387;78;21627;-55
2022/10/16 01:26:13;;;;;;;6.40;3.10;;;;;;;8.65;65.47;101833.48;1817140;77;21177;-55
2022/10/16 01:29:00;;;;;;;7.53;2.87;;;;;;;8.63;65.58;101836.58;1815625;78;21059;-54
2022/10/16 01:31:31;;;;;;;5.60;3.35;;;;;;;8.61;65.60;101834.42;1813317;78;21155;-51
2022/10/16 01:34:18;;;;;;;6.95;3.30;;;;;;;8.61;65.68;101839.67;1816359;78;21555;-55
2022/10/16 01:36:49;;;;;;;6.78;3.33;;;;;;;8.61;65.77;101834.42;1812211;78;21042;-55
2022/10/16 01:39:21;;;;;;;5.72;3.05;;;;;;;8.59;65.87;101839.69;1833081;78;21027;-55
2022/10/16 01:41:55;;;;;;;6.53;3.08;;;;;;;8.58;65.99;101841.91;1833205;78;21063;-55
2022/10/16 01:44:33;;;;;;;9.30;3.33;;;;;;;8.59;66.06;101846.70;1832963;78;21659;-54
2022/10/16 01:47:03;;;;;;;6.72;3.35;;;;;;;8.60;66.02;101848.45;1823330;77;21115;-53
2022/10/16 01:49:34;;;;;;;7.15;3.22;;;;;;;8.61;65.99;101842.30;1796836;79;21532;-52
2022/10/16 01:52:06;;;;;;;8.10;3.05;;;;;;;8.61;66.01;101843.61;1796781;79;21476;-47
2022/10/16 01:54:38;;;;;;;6.08;3.45;;;;;;;8.61;66.07;101840.98;1796772;79;21528;-47
2022/10/16 01:57:08;;;;;;;11.25;3.55;;;;;;;8.62;66.08;101846.22;1800043;77;21141;-54
2022/10/16 01:59:41;;;;;;;6.83;3.37;;;;;;;8.64;66.00;101844.90;1801861;80;21191;-54
2022/10/16 02:02:12;;;;;;;7.97;2.92;;;;;;;8.67;65.94;101851.43;1801790;79;21117;-54
2022/10/16 02:05:00;;;;;;;6.92;2.75;;;;;;;8.68;65.89;101846.59;1801498;79;21055;-54
2022/10/16 02:07:29;;;;;;;7.85;3.10;;;;;;;8.70;65.79;101840.86;1811478;78;21601;-53
2022/10/16 02:09:57;;;;;;;6.03;3.37;;;;;;;8.74;65.73;101846.95;1816949;79;21571;-55
2022/10/16 02:12:32;;;;;;;6.75;3.30;;;;;;;8.74;65.63;101841.23;1814779;79;21563;-51
2022/10/16 02:15:01;;;;;;;8.18;3.02;;;;;;;8.75;65.58;101837.73;1815288;77;21481;-55
2022/10/16 02:17:30;;;;;;;5.47;3.00;;;;;;;8.77;65.50;101845.59;1815693;78;21450;-56
2022/10/16 02:20:00;;;;;;;5.92;2.87;;;;;;;8.75;65.56;101845.61;1803433;79;21187;-56
2022/10/16 02:22:31;;;;;;;6.55;2.65;;;;;;;8.76;65.65;101855.25;1820122;77;21494;-56
2022/10/16 02:25:08;;;;;;;4.90;2.85;;;;;;;8.77;65.62;101858.73;1833268;78;21579;-56
2022/10/16 02:27:43;;;;;;;5.78;3.05;;;;;;;8.77;65.61;101856.97;1833310;78;21075;-56
2022/10/16 02:30:33;;;;;;;4.30;2.17;;;;;;;8.76;65.55;101859.19;1832852;78;21051;-54
2022/10/16 02:33:04;;;;;;;7.10;2.95;;;;;;;8.75;65.67;101858.75;1831970;78;21059;-53
2022/10/16 02:35:33;;;;;;;6.45;2.50;;;;;;;8.72;65.71;101852.21;1833235;78;21490;-56
2022/10/16 02:38:03;;;;;;;6.58;2.50;;;;;;;8.73;65.62;101860.53;1819580;78;21501;-55
2022/10/16 02:40:32;;;;;;;6.80;2.75;;;;;;;8.73;65.58;101855.27;1803443;79;21451;-56
2022/10/16 02:43:01;;;;;;;6.92;2.50;;;;;;;8.73;65.58;101856.59;1829784;77;21522;-57
2022/10/16 02:45:30;;;;;;;12.45;3.05;;;;;;;8.72;65.50;101861.86;1840008;78;21144;-54
2022/10/16 02:47:58;;;;;;;7.70;2.72;;;;;;;8.72;65.45;101861.41;1840357;77;21050;-56
2022/10/16 02:50:27;;;;;;;5.47;2.50;;;;;;;8.73;65.41;101854.41;1840362;78;21049;-53
2022/10/16 02:52:56;;;;;;;10.98;3.20;;;;;;;8.73;65.40;101859.67;1840137;78;21508;-57
2022/10/16 02:55:25;;;;;;;8.88;2.90;;;;;;;8.70;65.45;101865.81;1834996;78;21071;-57
2022/10/16 02:57:54;;;;;;;6.47;2.80;;;;;;;8.69;65.57;101864.09;1833253;78;21498;-56
2022/10/16 03:00:23;;;;;;;6.85;2.70;;;;;;;8.70;65.53;101864.50;1833153;78;21187;-58
2022/10/16 03:02:52;;;;;;;5.22;2.85;;;;;;;8.72;65.55;101867.97;1833338;78;21430;-58
2022/10/16 03:05:21;;;;;;;5.58;2.67;;;;;;;8.71;65.59;101866.25;1820134;78;21059;-58
2022/10/16 03:07:50;;;;;;;5.75;2.50;;;;;;;8.74;65.56;101874.06;1813316;78;21124;-59
2022/10/16 03:10:19;;;;;;;5.83;2.58;;;;;;;8.74;65.54;101875.83;1826201;78;21059;-58
2022/10/16 03:12:48;;;;;;;9.23;2.80;;;;;;;8.73;65.49;101873.66;1808945;79;21059;-57
2022/10/16 03:15:17;;;;;;;6.95;2.92;;;;;;;8.74;65.48;101879.77;1826670;78;21141;-56
2022/10/16 03:17:45;;;;;;;5.72;2.72;;;;;;;8.72;65.48;101874.53;1805339;79;21058;-56
2022/10/16 03:20:14;;;;;;;4.95;2.20;;;;;;;8.71;65.43;101874.13;1805191;79;21055;-54
2022/10/16 03:22:43;;;;;;;6.10;2.12;;;;;;;8.69;65.44;101874.59;1805435;79;21055;-57
2022/10/16 03:25:12;;;;;;;4.12;2.20;;;;;;;8.67;65.42;101872.44;1805314;79;21129;-57
2022/10/16 03:27:41;;;;;;;5.00;2.50;;;;;;;8.67;65.43;101871.13;1833525;78;21055;-57
2022/10/16 03:30:11;;;;;;;11.18;2.62;;;;;;;8.68;65.42;101872.84;1833301;78;21060;-56
2022/10/16 03:32:39;;;;;;;6.30;2.20;;;;;;;8.67;65.48;101873.75;1833182;78;21076;-58
2022/10/16 03:35:09;;;;;;;4.55;2.50;;;;;;;8.67;65.57;101879.00;1833886;78;21158;-58
2022/10/16 03:37:37;;;;;;;4.87;2.30;;;;;;;8.69;65.52;101880.70;1842512;78;21099;-56
2022/10/16 03:40:07;;;;;;;8.58;2.60;;;;;;;8.69;65.46;101871.97;1848569;77;21059;-53
2022/10/16 03:42:35;;;;;;;4.97;2.70;;;;;;;8.69;65.41;101875.45;1846901;77;21096;-58
2022/10/16 03:45:05;;;;;;;2.83;2.10;;;;;;;8.70;65.45;101878.94;1841751;78;21174;-58
2022/10/16 03:47:33;;;;;;;4.50;2.80;;;;;;;8.69;65.43;101878.53;1841629;78;21201;-58
2022/10/16 03:50:02;;;;;;;4.45;1.87;;;;;;;8.71;65.41;101879.38;1840970;78;21046;-57
2022/10/16 03:52:31;;;;;;;5.08;2.75;;;;;;;8.70;65.50;101878.94;1837193;77;21060;-57
2022/10/16 03:55:00;;;;;;;4.05;2.42;;;;;;;8.71;65.44;101880.69;1830338;77;21560;-59
2022/10/16 03:57:29;;;;;;;4.50;2.08;;;;;;;8.70;65.39;101882.88;1830364;78;21071;-59
2022/10/16 03:59:58;;;;;;;5.08;2.80;;;;;;;8.71;65.36;101876.75;1827441;78;21079;-48
2022/10/16 04:02:27;;;;;;;8.53;2.90;;;;;;;8.72;65.33;101882.41;1827762;78;21118;-52
2022/10/16 04:04:56;;;;;;;7.20;3.42;;;;;;;8.73;65.27;101876.28;1827754;78;21138;-56
2022/10/16 04:07:24;;;;;;;7.78;2.37;;;;;;;8.75;65.22;101878.89;1827764;78;21161;-53
2022/10/16 04:09:53;;;;;;;5.15;2.85;;;;;;;8.75;65.19;101885.01;1828422;77;21035;-53
2022/10/16 04:12:22;;;;;;;6.50;2.37;;;;;;;8.76;65.17;101879.30;1840667;77;21156;-58
2022/10/16 04:14:51;;;;;;;13.60;3.20;;;;;;;8.75;65.14;101885.01;1847356;77;21047;-54
2022/10/16 04:17:20;;;;;;;8.00;3.25;;;;;;;8.76;65.13;101888.07;1845478;77;21044;-53
2022/10/16 04:19:48;;;;;;;6.17;3.20;;;;;;;8.74;65.14;101888.50;1850429;77;21076;-58
2022/10/16 04:22:17;;;;;;;12.68;4.80;;;;;;;8.76;65.12;101892.01;1839056;76;21166;-59
2022/10/16 04:24:45;;;;;;;7.35;3.60;;;;;;;8.75;65.14;101892.88;1839003;77;21051;-57
2022/10/16 04:27:14;;;;;;;9.70;4.00;;;;;;;8.74;65.10;101902.95;1847470;77;21166;-57
2022/10/16 04:29:43;;;;;;;8.53;3.25;;;;;;;8.76;65.08;101902.52;1837192;77;21162;-59
2022/10/16 04:32:12;;;;;;;6.60;3.33;;;;;;;8.76;65.07;101907.77;1836475;77;21101;-59
2022/10/16 04:34:41;;;;;;;6.50;2.83;;;;;;;8.78;65.01;101909.03;1842347;76;21068;-55
2022/10/16 04:37:10;;;;;;;8.88;3.27;;;;;;;8.79;65.03;101912.95;1845275;77;21131;-54
2022/10/16 04:39:38;;;;;;;4.83;2.65;;;;;;;8.77;65.01;101909.48;1843995;76;21146;-58
2022/10/16 04:42:07;;;;;;;4.47;2.40;;;;;;;8.77;65.00;101922.62;1841061;76;21103;-59
2022/10/16 04:44:36;;;;;;;6.30;2.45;;;;;;;8.78;64.97;101921.74;1833739;77;21693;-50
2022/10/16 04:47:05;;;;;;;6.17;2.20;;;;;;;8.79;64.98;101923.46;1840111;77;21186;-45
2022/10/16 04:49:34;;;;;;;5.17;2.65;;;;;;;8.83;64.96;101923.84;1838086;77;21037;-47
2022/10/16 04:52:03;;;;;;;6.72;2.00;;;;;;;8.85;64.95;101926.03;1827332;77;21199;-49
2022/10/16 04:54:32;;;;;;;4.45;2.35;;;;;;;8.87;64.92;101926.88;1835060;77;21047;-96
2022/10/16 04:57:01;;;;;;;3.40;1.60;;;;;;;8.89;64.98;101925.09;1835763;77;21097;-95
2022/10/16 04:59:30;;;;;;;6.67;3.35;;;;;;;8.93;64.99;101928.97;1834964;77;21182;-51
2022/10/16 05:01:59;;;;;;;6.05;2.65;;;;;;;8.93;64.95;101931.18;1840623;78;21133;-51
2022/10/16 05:04:27;;;;;;;5.85;2.70;;;;;;;8.97;64.94;101936.81;1840213;77;21188;-50
2022/10/16 05:06:56;;;;;;;5.15;2.62;;;;;;;9.00;64.92;101930.63;1835141;77;21098;-51
2022/10/16 05:09:25;;;;;;;5.30;2.37;;;;;;;9.04;64.88;101936.30;1835497;78;21634;-47
2022/10/16 05:11:54;;;;;;;10.75;2.55;;;;;;;9.08;64.88;101932.73;1835169;78;21552;-50
2022/10/16 05:14:23;;;;;;;4.03;1.60;;;;;;;9.10;64.83;101929.63;1841761;78;21061;-54
2022/10/16 05:16:51;;;;;;;2.55;1.02;;;;;;;9.12;64.82;101931.80;1841584;78;21049;-52
2022/10/16 05:19:20;;;;;;;6.33;3.15;;;;;;;9.17;64.81;101934.38;1836398;77;21063;-54
2022/10/16 05:21:49;;;;;;;7.65;3.40;;;;;;;9.19;64.77;101936.08;1835501;78;21063;-52
2022/10/16 05:24:18;;;;;;;6.12;2.20;;;;;;;9.21;64.77;101935.60;1835357;78;21111;-52
2022/10/16 05:26:47;;;;;;;12.85;3.10;;;;;;;9.23;64.71;101936.45;1835455;78;21039;-54
2022/10/16 05:29:16;;;;;;;8.40;3.72;;;;;;;9.25;64.66;101942.55;1838541;77;21060;-55
2022/10/16 05:31:45;;;;;;;6.92;2.30;;;;;;;9.30;64.65;101949.06;1833577;78;21117;-53
2022/10/16 05:34:13;;;;;;;7.47;3.85;;;;;;;9.34;64.62;101951.20;1836054;77;21076;-54
2022/10/16 05:36:44;;;;;;;6.45;3.22;;;;;;;9.39;64.57;101953.33;1833857;78;21174;-53
2022/10/16 05:39:14;;;;;;;8.33;3.72;;;;;;;9.40;64.51;101950.66;1812036;79;21043;-53
2022/10/16 05:41:43;;;;;;;25.52;10.30;;;;;;;9.43;64.50;101952.38;1807040;78;21549;-54
2022/10/16 05:44:12;;;;;;;23.50;7.97;;;;;;;9.45;64.45;101953.23;1826391;77;21044;-54
2022/10/16 05:46:41;;;;;;;12.53;5.10;;;;;;;9.49;64.46;101947.48;1823929;78;21068;-52
2022/10/16 05:49:10;;;;;;;14.55;7.42;;;;;;;9.54;64.49;101946.97;1814801;78;21162;-52
2022/10/16 05:51:39;;;;;;;15.05;6.40;;;;;;;9.56;64.45;101942.09;1841216;78;21135;-54
2022/10/16 05:54:07;;;;;;;10.68;5.03;;;;;;;9.62;64.42;101936.73;1828084;77;21064;-54
2022/10/16 05:56:36;;;;;;;12.80;6.03;;;;;;;9.74;64.35;101942.68;1832173;78;21149;-51
2022/10/16 05:59:06;;;;;;;7.40;4.10;;;;;;;9.81;64.32;101946.95;1811794;79;21658;-55
2022/10/16 06:01:35;;;;;;;9.48;3.80;;;;;;;9.90;64.22;101949.89;1811582;79;21141;-53
2022/10/16 06:04:04;;;;;;;8.63;3.22;;;;;;;9.97;64.17;101951.52;1811633;79;21083;-52
2022/10/16 06:06:33;;;;;;;8.70;3.10;;;;;;;10.03;64.10;101958.87;1814124;77;21036;-53
2022/10/16 06:09:02;;;;;;;8.03;3.50;;;;;;;10.03;64.06;101954.03;1839236;78;21097;-53
2022/10/16 06:11:33;;;;;;;9.70;3.95;;;;;;;10.05;64.03;101963.66;1838531;78;21130;-53
2022/10/16 06:14:06;;;;;;;8.50;3.80;;;;;;;10.09;64.00;101958.32;1835639;78;21083;-53
2022/10/16 06:16:35;;;;;;;9.20;4.40;;;;;;;10.12;64.01;101963.54;1834349;78;21075;-51
2022/10/16 06:19:07;;;;;;;8.93;4.12;;;;;;;10.15;64.03;101964.36;1841885;78;21162;-53
2022/10/16 06:21:34;;;;;;;15.35;5.50;;;;;;;10.20;63.99;101965.61;1844812;77;21048;-52
2022/10/16 06:24:04;;;;;;;13.00;5.75;;;;;;;10.27;63.94;101965.89;1856221;77;21017;-49
2022/10/16 06:26:33;;;;;;;11.38;3.92;;;;;;;10.35;63.97;101971.08;1856308;77;21117;-54
2022/10/16 06:29:02;;;;;;;10.60;4.30;;;;;;;10.40;63.89;101964.83;1856211;77;21055;-52
2022/10/16 06:31:33;;;;;;;15.08;6.87;;;;;;;10.48;63.84;101962.04;1841753;77;21457;-51
2022/10/16 06:34:02;;;;;;;27.85;10.43;;;;;;;10.57;63.78;101958.38;1841736;78;21030;-52
2022/10/16 06:36:30;;;;;;;15.83;6.20;;;;;;;10.64;63.67;101952.05;1841665;78;21730;-53
2022/10/16 06:38:59;;;;;;;21.77;8.30;;;;;;;10.74;63.55;101949.67;1841637;78;21083;-53
2022/10/16 06:41:28;;;;;;;16.37;6.20;;;;;;;10.82;63.45;101946.41;1848065;77;21077;-47
2022/10/16 06:43:58;;;;;;;17.48;5.62;;;;;;;10.89;63.42;101943.20;1851000;77;21127;-56
2022/10/16 06:46:27;;;;;;;18.37;8.40;;;;;;;10.94;63.30;101940.49;1834132;77;21547;-56
2022/10/16 06:48:56;;;;;;;19.32;8.60;;;;;;;11.03;63.25;101938.09;1833093;78;21671;-56
2022/10/16 06:51:26;;;;;;;18.40;8.85;;;;;;;11.16;63.25;101938.26;1833725;77;21053;-55
2022/10/16 06:53:59;;;;;;;27.17;10.08;;;;;;;11.26;63.03;101944.18;1833322;78;21553;-55
2022/10/16 06:56:30;;;;;;;29.30;9.98;;;;;;;11.32;62.83;101945.34;1833434;78;21049;-55
2022/10/16 06:58:59;;;;;;;17.62;6.65;;;;;;;11.40;62.78;101944.73;1833180;78;21096;-51
2022/10/16 07:01:29;;;;;;;18.50;6.50;;;;;;;11.49;62.77;101943.20;1833649;77;21136;-48
2022/10/16 07:03:58;;;;;;;13.18;5.05;;;;;;;11.59;62.71;101943.38;1830621;78;21472;-49
2022/10/16 07:06:27;;;;;;;11.73;5.28;;;;;;;11.69;62.66;101948.01;1830523;78;21057;-48
2022/10/16 07:08:56;;;;;;;21.45;5.80;;;;;;;11.73;62.48;101948.77;1836090;77;21501;-46
2022/10/16 07:11:25;;;;;;;12.37;4.08;;;;;;;11.77;62.41;101951.31;1840636;78;21055;-48
2022/10/16 07:13:54;;;;;;;14.23;5.47;;;;;;;11.82;62.37;101945.05;1840105;78;21071;-46
2022/10/16 07:16:26;;;;;;;20.80;9.10;;;;;;;11.84;62.20;101952.03;1840280;78;21486;-46
2022/10/16 07:19:02;;;;;;;17.10;7.40;;;;;;;11.91;62.15;101951.44;1838275;78;21571;-55
2022/10/16 07:21:39;;;;;;;13.48;4.83;;;;;;;12.01;62.10;101952.06;1834812;78;21130;-56
2022/10/16 07:24:06;;;;;;;15.25;5.05;;;;;;;12.06;62.03;101956.78;1836741;78;21059;-56
2022/10/16 07:26:38;;;;;;;19.23;4.58;;;;;;;12.12;61.97;101951.36;1837489;78;21498;-47
2022/10/16 07:29:10;;;;;;;12.50;4.60;;;;;;;12.22;61.93;101956.80;1837131;78;21490;-53
2022/10/16 07:31:39;;;;;;;12.33;4.58;;;;;;;12.29;61.89;101957.05;1840095;77;21090;-52
2022/10/16 07:34:09;;;;;;;10.13;4.55;;;;;;;12.31;61.87;101955.23;1840108;78;21580;-53
2022/10/16 07:36:37;;;;;;;15.60;6.67;;;;;;;12.34;61.77;101959.59;1840002;78;21588;-53
2022/10/16 07:39:06;;;;;;;7.12;3.33;;;;;;;12.30;61.80;101958.80;1830534;78;21053;-52
2022/10/16 07:41:36;;;;;;;7.58;2.25;;;;;;;12.30;61.83;101956.16;1827651;78;21131;-54
2022/10/16 07:44:06;;;;;;;6.75;3.20;;;;;;;12.30;61.89;101968.05;1832278;77;21466;-52
2022/10/16 07:46:36;;;;;;;3.50;2.08;;;;;;;12.31;61.86;101972.40;1846389;77;21503;-53
2022/10/16 07:49:04;;;;;;;5.78;2.62;;;;;;;12.32;61.92;101970.61;1848609;77;21495;-55
2022/10/16 07:51:34;;;;;;;7.50;3.70;;;;;;;12.30;61.94;101964.08;1841216;77;21135;-49
2022/10/16 07:54:03;;;;;;;5.12;2.00;;;;;;;12.35;61.94;101959.52;1846494;77;21506;-51
2022/10/16 07:56:32;;;;;;;6.47;2.98;;;;;;;12.39;61.91;101970.01;1848414;77;21043;-51
2022/10/16 07:59:01;;;;;;;3.35;1.60;;;;;;;12.36;61.92;101969.19;1838029;77;21032;-49
2022/10/16 08:01:30;;;;;;;10.98;2.75;;;;;;;12.37;61.94;101966.08;1847117;77;21353;-50
2022/10/16 08:03:58;;;;;;;9.95;4.85;;;;;;;12.45;61.96;101961.91;1841723;77;21604;-51
2022/10/16 08:06:27;;;;;;;7.60;2.72;;;;;;;12.57;61.96;101960.26;1836529;77;21135;-46
2022/10/16 08:08:57;;;;;;;5.47;2.90;;;;;;;12.70;61.86;101961.64;1845321;77;21118;-53
2022/10/16 08:11:26;;;;;;;5.20;2.42;;;;;;;12.84;61.71;101969.66;1841828;77;21244;-51
2022/10/16 08:13:54;;;;;;;6.33;3.05;;;;;;;12.94;61.57;101967.98;1842615;77;21058;-54
2022/10/16 08:16:23;;;;;;;4.50;2.80;;;;;;;13.01;61.46;101970.01;1851160;77;21094;-51
2022/10/16 08:18:52;;;;;;;7.70;3.33;;;;;;;13.03;61.51;101962.03;1847803;77;21046;-52
2022/10/16 08:21:23;;;;;;;6.10;2.80;;;;;;;12.93;61.63;101970.23;1833548;77;21124;-96
2022/10/16 08:23:54;;;;;;;10.50;3.35;;;;;;;12.81;61.76;101966.63;1846814;77;21118;-51
2022/10/16 08:26:24;;;;;;;3.67;2.22;;;;;;;12.75;61.83;101967.66;1845662;77;21086;-54
2022/10/16 08:28:53;;;;;;;5.72;2.90;;;;;;;12.74;61.92;101970.34;1847997;77;21111;-55
2022/10/16 08:31:22;;;;;;;10.78;2.87;;;;;;;12.84;61.90;101967.01;1850697;77;21165;-53
2022/10/16 08:33:52;;;;;;;3.90;2.62;;;;;;;13.00;61.89;101962.12;1809720;79;21174;-55
2022/10/16 08:36:20;;;;;;;7.28;2.98;;;;;;;13.17;61.92;101968.22;1809989;79;21174;-56
2022/10/16 08:38:50;;;;;;;8.80;3.12;;;;;;;13.30;61.81;101966.95;1836309;78;21178;-55
2022/10/16 08:41:21;;;;;;;5.25;3.08;;;;;;;13.47;61.67;101967.31;1844033;78;21562;-56
2022/10/16 08:44:19;;;;;;;6.00;3.22;;;;;;;13.83;61.46;101968.38;1842898;78;21141;-55
2022/10/16 08:46:53;;;;;;;4.92;2.90;;;;;;;14.19;60.99;101964.53;1845214;77;21043;-55
2022/10/16 08:49:24;;;;;;;6.35;2.60;;;;;;;14.59;60.38;101966.66;1839202;78;21066;-55
2022/10/16 08:51:53;;;;;;;5.45;2.90;;;;;;;14.79;59.68;101963.72;1846257;77;21542;-45
2022/10/16 08:54:28;;;;;;;8.45;3.17;;;;;;;14.76;59.34;101963.39;1839686;78;21581;-49
2022/10/16 08:56:59;;;;;;;6.45;2.67;;;;;;;15.01;59.17;101969.97;1839830;78;21055;-50
2022/10/16 08:59:28;;;;;;;6.35;2.83;;;;;;;15.47;58.61;101962.45;1838613;78;21023;-48
2022/10/16 09:01:57;;;;;;;4.03;2.67;;;;;;;16.09;57.63;101960.34;1839894;78;21136;-51
2022/10/16 09:04:34;;;;;;;5.30;3.17;;;;;;;16.64;56.65;101957.06;1839150;78;21153;-56
2022/10/16 09:07:21;;;;;;;4.60;2.42;;;;;;;17.13;56.08;101949.95;1839986;78;21067;-53
2022/10/16 09:09:56;;;;;;;8.15;3.40;;;;;;;17.87;54.41;101947.70;1829940;78;21143;-49
2022/10/16 09:12:43;;;;;;;8.83;3.17;;;;;;;18.56;51.88;101952.61;1839967;77;21494;-52
2022/10/16 09:15:42;;;;;;;6.08;2.92;;;;;;;19.32;50.63;101949.36;1838768;78;21457;-50
2022/10/16 09:18:20;;;;;;;6.50;3.15;;;;;;;19.36;49.80;101948.23;1838507;78;21175;-52
2022/10/16 09:20:54;;;;;;;5.87;2.40;;;;;;;18.81;50.60;101950.83;1838590;78;21493;-51
2022/10/16 09:23:31;;;;;;;10.43;3.75;;;;;;;18.28;51.85;101955.41;1838451;78;21038;-52
2022/10/16 09:26:01;;;;;;;6.05;2.77;;;;;;;18.14;52.15;101955.63;1846083;77;21039;-54
2022/10/16 09:28:29;;;;;;;4.28;2.98;;;;;;;18.71;51.60;101945.11;1846767;77;21051;-53
2022/10/16 09:30:58;;;;;;;4.95;3.25;;;;;;;19.46;50.52;101945.44;1846750;78;21149;-54
2022/10/16 09:33:32;;;;;;;6.28;3.10;;;;;;;19.94;49.31;101939.53;1846566;78;21547;-54
2022/10/16 09:36:03;;;;;;;7.47;3.40;;;;;;;20.12;47.94;101940.25;1843646;77;21102;-55
2022/10/16 09:38:37;;;;;;;8.20;4.20;;;;;;;20.52;48.01;101944.96;1837662;78;21152;-55
2022/10/16 09:41:14;;;;;;;5.83;2.47;;;;;;;20.78;47.57;101932.17;1833012;77;21051;-56
2022/10/16 09:44:02;;;;;;;6.08;3.22;;;;;;;20.89;46.92;101935.99;1833048;78;21055;-56
2022/10/16 09:46:37;;;;;;;8.25;3.72;;;;;;;20.49;46.71;101923.74;1837340;77;21055;-56
2022/10/16 09:49:08;;;;;;;7.83;3.75;;;;;;;20.74;46.78;101923.95;1839921;78;21556;-55
2022/10/16 09:51:38;;;;;;;10.68;4.47;;;;;;;20.79;46.45;101909.81;1832925;77;21458;-56
2022/10/16 09:54:13;;;;;;;9.93;4.10;;;;;;;20.73;46.30;101912.00;1839450;77;21231;-49
2022/10/16 09:56:45;;;;;;;11.20;4.33;;;;;;;20.91;46.22;101908.16;1839913;78;21158;-46
2022/10/16 09:59:30;;;;;;;7.62;4.40;;;;;;;20.91;46.79;101911.31;1839920;78;21063;-49
2022/10/16 10:01:56;;;;;;;;;;;;;;;20.41;47.41;101911.70;1841863;78;21056;-49
2022/10/16 10:04:28;;;;;;;6.47;4.17;;;;;;;20.41;47.52;101906.83;1839265;78;20115;-50
2022/10/16 10:06:58;;;;;;;7.47;3.60;;;;;;;20.70;46.96;101907.72;1839872;77;21067;-51
2022/10/16 10:09:35;;;;;;;6.92;3.65;;;;;;;21.10;46.53;101898.92;1840154;78;21047;-48
2022/10/16 10:12:06;;;;;;;8.13;4.08;;;;;;;21.47;45.95;101896.08;1839946;77;21533;-49
2022/10/16 10:14:49;;;;;;;6.80;3.85;;;;;;;21.76;45.33;101890.09;1837421;77;21054;-50
2022/10/16 10:17:27;;;;;;;8.95;3.83;;;;;;;22.47;44.87;101895.07;1832775;78;21465;-50
2022/10/16 10:20:00;;;;;;;10.65;4.05;;;;;;;22.82;44.03;101897.05;1833112;78;21062;-48
2022/10/16 10:22:45;;;;;;;11.75;3.90;;;;;;;22.63;43.60;101896.15;1833098;77;21066;-49
2022/10/16 10:25:29;;;;;;;7.95;4.33;;;;;;;21.88;44.08;101895.08;1827565;77;21039;-46
2022/10/16 10:28:12;;;;;;;7.42;3.90;;;;;;;21.03;45.84;101893.63;1831783;78;21084;-48
2022/10/16 10:31:11;;;;;;;7.55;3.95;;;;;;;20.61;46.97;101894.44;1840286;77;21486;-47
2022/10/16 10:34:03;;;;;;;8.25;4.12;;;;;;;20.57;47.49;101892.88;1839960;78;21515;-47
2022/10/16 10:36:35;;;;;;;8.95;4.45;;;;;;;20.47;47.89;101889.54;1789558;78;21194;-49
2022/10/16 10:39:21;;;;;;;17.73;6.15;;;;;;;20.27;48.28;101884.97;1845669;77;21161;-44
2022/10/16 10:41:59;;;;;;;11.15;5.62;;;;;;;19.87;49.29;101884.72;1848150;76;21067;-94
2022/10/16 10:44:40;;;;;;;8.53;5.50;;;;;;;19.26;50.69;101882.48;1848469;76;21127;-47
2022/10/16 10:47:35;;;;;;;20.23;8.53;;;;;;;18.77;51.92;101884.73;1780829;79;21138;-48
2022/10/16 10:50:13;;;;;;;12.30;5.67;;;;;;;18.44;52.99;101886.98;1777369;80;21466;-45
2022/10/16 10:53:08;;;;;;;19.50;8.93;;;;;;;18.20;53.83;101885.61;1782429;79;21091;-45
2022/10/16 10:55:36;;;;;;;13.80;7.15;;;;;;;18.17;54.00;101875.98;1844372;77;21055;-51
2022/10/16 10:58:24;;;;;;;12.45;5.78;;;;;;;18.40;53.92;101878.74;1845893;77;21487;-51
2022/10/16 11:01:02;;;;;;;11.33;5.12;;;;;;;18.42;54.29;101891.52;1852017;77;21147;-50
2022/10/16 11:03:48;;;;;;;19.07;7.62;;;;;;;18.19;54.74;101886.58;1834883;77;21052;-49
2022/10/16 11:06:24;;;;;;;16.30;7.12;;;;;;;17.96;55.33;101888.62;1835664;77;21056;-49
2022/10/16 11:08:56;;;;;;;17.00;10.10;;;;;;;17.88;55.86;101890.83;1823554;77;21060;-48
2022/10/16 11:11:42;;;;;;;23.32;10.08;;;;;;;17.79;56.29;101888.61;1839944;77;21047;-52
2022/10/16 11:14:17;;;;;;;15.43;6.10;;;;;;;17.77;56.56;101890.02;1806092;79;21136;-49
2022/10/16 11:17:01;;;;;;;16.27;7.78;;;;;;;17.81;56.73;101888.05;1778496;79;21149;-50
2022/10/16 11:19:48;;;;;;;14.35;6.67;;;;;;;17.83;56.90;101883.51;1807602;79;21037;-54
2022/10/16 11:22:19;;;;;;;13.48;6.92;;;;;;;17.79;57.22;101892.61;1807182;79;21085;-53
2022/10/16 11:25:13;;;;;;;15.93;7.53;;;;;;;17.68;57.55;101899.33;1824759;77;21110;-52
2022/10/16 11:27:54;;;;;;;11.30;5.72;;;;;;;17.63;57.57;101890.73;1829830;78;21098;-54
2022/10/16 11:30:28;;;;;;;12.90;7.05;;;;;;;17.62;57.68;101888.99;1828434;78;21556;-49
2022/10/16 11:33:11;;;;;;;19.15;8.60;;;;;;;17.58;57.73;101888.76;1831952;78;21082;-52
2022/10/16 11:35:55;;;;;;;12.82;5.62;;;;;;;17.58;57.76;101889.20;1830421;77;21435;-56
2022/10/16 11:38:36;;;;;;;;;;;;;;;17.56;58.02;101895.49;1827325;77;21140;-57
2022/10/16 11:41:23;;;;;;;12.13;5.35;;;;;;;17.53;58.19;101889.45;1828740;78;20150;-55
2022/10/16 11:44:16;;;;;;;6.95;3.30;;;;;;;17.47;58.43;101890.63;1829935;77;21459;-55
2022/10/16 11:46:53;;;;;;;5.60;2.93;;;;;;;17.44;58.78;101890.77;1800170;78;21505;-54
2022/10/16 11:49:25;;;;;;;14.40;5.72;;;;;;;17.43;58.81;101893.50;1835781;76;21193;-55
2022/10/16 11:52:02;;;;;;;14.78;5.70;;;;;;;17.42;58.89;101892.64;1805884;79;21063;-55